sensor_id;sensor_type;location;lat;lon;timestamp;pressure;altitude;pressure_sealevel;temperature;humidity
16431;BME280;8325;49.284;7.238;2023-09-18T04:04:59;97933.94;;;19.35;100.00
16431;BME280;8325;49.284;7.238;2023-09-18T04:09:10;97947.84;;;19.25;100.00
16431;BME280;8325;49.284;7.238;2023-09-18T04:13:22;97935.59;;;19.19;100.00
16431;BME280;8325;49.284;7.238;2023-09-18T04:17:34;97913.53;;;19.13;100.00
16431;BME280;8325;49.284;7.238;2023-09-18T04:21:46;97938.03;;;19.03;100.00
16431;BME280;8325;49.284;7.238;2023-09-18T04:25:57;97958.88;;;19.00;100.00
16431;BME280;8325;49.284;7.238;2023-09-18T04:30:10;97950.38;;;18.98;100.00
16431;BME280;8325;49.284;7.238;2023-09-18T04:34:22;97937.84;;;18.93;100.00
16431;BME280;8325;49.284;7.238;2023-09-18T04:38:34;97970.66;;;18.92;100.00
16431;BME280;8325;49.284;7.238;2023-09-18T04:42:45;97997.38;;;18.91;100.00
16431;BME280;8325;49.284;7.238;2023-09-18T04:46:57;97968.97;;;18.86;100.00
16431;BME280;8325;49.284;7.238;2023-09-18T04:51:09;97932.50;;;18.88;100.00
16431;BME280;8325;49.284;7.238;2023-09-18T04:55:21;97941.47;;;18.87;100.00
16431;BME280;8325;49.284;7.238;2023-09-18T04:59:33;97988.28;;;18.86;100.00
16431;BME280;8325;49.284;7.238;2023-09-18T05:03:46;97982.69;;;18.83;100.00
16431;BME280;8325;49.284;7.238;2023-09-18T05:08:05;97949.34;;;18.82;100.00
16431;BME280;8325;49.284;7.238;2023-09-18T05:12:19;97943.56;;;18.85;100.00
16431;BME280;8325;49.284;7.238;2023-09-18T05:16:30;97944.13;;;18.87;100.00
16431;BME280;8325;49.284;7.238;2023-09-18T05:20:46;97966.72;;;18.78;100.00
16431;BME280;8325;49.284;7.238;2023-09-18T05:24:58;97961.91;;;18.75;100.00
16431;BME280;8325;49.284;7.238;2023-09-18T05:29:09;97970.56;;;18.70;100.00
16431;BME280;8325;49.284;7.238;2023-09-18T05:33:21;97976.31;;;18.67;100.00
16431;BME280;8325;49.284;7.238;2023-09-18T05:37:33;98002.19;;;18.65;100.00
16431;BME280;8325;49.284;7.238;2023-09-18T05:41:44;98000.03;;;18.62;100.00
16431;BME280;8325;49.284;7.238;2023-09-18T05:45:56;98009.81;;;18.61;100.00
16431;BME280;8325;49.284;7.238;2023-09-18T05:50:09;98012.47;;;18.61;100.00
16431;BME280;8325;49.284;7.238;2023-09-18T05:54:21;97989.22;;;18.63;100.00
16431;BME280;8325;49.284;7.238;2023-09-18T05:58:33;97999.81;;;18.63;100.00
16431;BME280;8325;49.284;7.238;2023-09-18T06:02:46;98023.63;;;18.63;100.00
16431;BME280;8325;49.284;7.238;2023-09-18T06:06:58;98028.91;;;18.63;100.00
16431;BME280;8325;49.284;7.238;2023-09-18T06:11:10;98032.09;;;18.66;100.00
16431;BME280;8325;49.284;7.238;2023-09-18T06:15:21;98044.78;;;18.63;100.00
16431;BME280;8325;49.284;7.238;2023-09-18T06:19:33;98036.38;;;18.67;100.00
16431;BME280;8325;49.284;7.238;2023-09-18T06:23:45;98024.50;;;18.69;100.00
16431;BME280;8325;49.284;7.238;2023-09-18T06:27:57;98023.22;;;18.72;100.00
16431;BME280;8325;49.284;7.238;2023-09-18T06:32:08;98040.13;;;18.71;100.00
16431;BME280;8325;49.284;7.238;2023-09-18T06:36:20;98042.56;;;18.72;100.00
16431;BME280;8325;49.284;7.238;2023-09-18T06:40:32;98048.53;;;18.68;100.00
16431;BME280;8325;49.284;7.238;2023-09-18T06:44:43;98046.47;;;18.70;100.00
16431;BME280;8325;49.284;7.238;2023-09-18T06:48:56;98055.44;;;18.69;100.00
16431;BME280;8325;49.284;7.238;2023-09-18T06:53:07;98048.53;;;18.68;100.00
16431;BME280;8325;49.284;7.238;2023-09-18T06:57:19;98046.47;;;18.70;100.00
16431;BME280;8325;49.284;7.238;2023-09-18T07:01:32;98051.66;;;18.64;100.00
16431;BME280;8325;49.284;7.238;2023-09-18T07:05:44;98054.88;;;18.67;100.00
16431;BME280;8325;49.284;7.238;2023-09-18T07:09:57;98067.19;;;18.73;100.00
16431;BME280;8325;49.284;7.238;2023-09-18T07:14:12;98052.69;;;18.75;100.00
16431;BME280;8325;49.284;7.238;2023-09-18T07:18:23;98055.19;;;18.70;100.00
16431;BME280;8325;49.284;7.238;2023-09-18T07:22:35;98055.06;;;18.77;100.00
16431;BME280;8325;49.284;7.238;2023-09-18T07:26:48;98061.00;;;18.84;100.00
16431;BME280;8325;49.284;7.238;2023-09-18T07:31:07;98078.41;;;18.80;100.00
16431;BME280;8325;49.284;7.238;2023-09-18T07:35:20;98068.63;;;18.80;100.00
16431;BME280;8325;49.284;7.238;2023-09-18T07:39:31;98063.13;;;18.82;100.00
16431;BME280;8325;49.284;7.238;2023-09-18T07:43:44;98060.22;;;18.83;100.00
16431;BME280;8325;49.284;7.238;2023-09-18T07:47:55;98065.81;;;18.87;100.00
16431;BME280;8325;49.284;7.238;2023-09-18T07:52:07;98050.84;;;18.93;100.00
16431;BME280;8325;49.284;7.238;2023-09-18T07:56:19;98062.22;;;18.93;100.00
16431;BME280;8325;49.284;7.238;2023-09-18T08:00:30;98064.88;;;18.93;100.00
16431;BME280;8325;49.284;7.238;2023-09-18T08:04:44;98071.00;;;18.94;100.00
16431;BME280;8325;49.284;7.238;2023-09-18T08:08:56;98082.38;;;18.94;100.00
16431;BME280;8325;49.284;7.238;2023-09-18T08:13:07;98086.50;;;18.90;100.00
16431;BME280;8325;49.284;7.238;2023-09-18T08:17:19;98081.69;;;18.87;100.00
16431;BME280;8325;49.284;7.238;2023-09-18T08:21:30;98082.84;;;18.91;100.00
16431;BME280;8325;49.284;7.238;2023-09-18T08:25:43;98072.00;;;18.93;100.00
16431;BME280;8325;49.284;7.238;2023-09-18T08:29:54;98083.31;;;19.05;100.00
16431;BME280;8325;49.284;7.238;2023-09-18T08:34:06;98085.91;;;19.17;100.00
16431;BME280;8325;49.284;7.238;2023-09-18T08:38:18;98077.16;;;19.33;100.00
16431;BME280;8325;49.284;7.238;2023-09-18T08:42:30;98087.44;;;19.46;100.00
16431;BME280;8325;49.284;7.238;2023-09-18T08:46:43;98096.13;;;19.64;100.00
16431;BME280;8325;49.284;7.238;2023-09-18T08:50:55;98090.53;;;19.77;100.00
16431;BME280;8325;49.284;7.238;2023-09-18T08:55:07;98095.00;;;19.93;100.00
16431;BME280;8325;49.284;7.238;2023-09-18T08:59:21;98095.56;;;19.95;100.00
16431;BME280;8325;49.284;7.238;2023-09-18T09:03:33;98095.75;;;20.11;100.00
16431;BME280;8325;49.284;7.238;2023-09-18T09:07:45;98084.28;;;20.27;100.00
16431;BME280;8325;49.284;7.238;2023-09-18T09:11:57;98104.91;;;20.47;100.00
16431;BME280;8325;49.284;7.238;2023-09-18T09:16:11;98099.06;;;20.45;100.00
16431;BME280;8325;49.284;7.238;2023-09-18T09:20:24;98086.22;;;20.37;100.00
16431;BME280;8325;49.284;7.238;2023-09-18T09:24:37;98095.47;;;20.34;100.00
16431;BME280;8325;49.284;7.238;2023-09-18T09:28:49;98089.38;;;20.34;100.00
16431;BME280;8325;49.284;7.238;2023-09-18T09:33:03;98083.44;;;20.49;100.00
16431;BME280;8325;49.284;7.238;2023-09-18T09:37:16;98095.03;;;20.64;100.00
16431;BME280;8325;49.284;7.238;2023-09-18T09:41:27;98094.84;;;20.71;100.00
16431;BME280;8325;49.284;7.238;2023-09-18T09:45:41;98089.59;;;20.76;100.00
16431;BME280;8325;49.284;7.238;2023-09-18T09:49:53;98092.63;;;20.90;100.00
16431;BME280;8325;49.284;7.238;2023-09-18T09:54:05;98096.09;;;20.90;100.00
16431;BME280;8325;49.284;7.238;2023-09-18T09:58:26;98084.88;;;20.83;100.00
16431;BME280;8325;49.284;7.238;2023-09-18T10:02:38;98079.97;;;20.97;100.00
16431;BME280;8325;49.284;7.238;2023-09-18T10:06:58;98089.06;;;21.06;100.00
16431;BME280;8325;49.284;7.238;2023-09-18T10:11:18;98077.03;;;20.94;100.00
16431;BME280;8325;49.284;7.238;2023-09-18T10:15:33;98092.94;;;20.94;100.00
16431;BME280;8325;49.284;7.238;2023-09-18T10:20:05;98091.75;;;20.79;100.00
16431;BME280;8325;49.284;7.238;2023-09-18T10:24:28;98096.69;;;20.71;100.00
16431;BME280;8325;49.284;7.238;2023-09-18T10:28:42;98091.16;;;20.72;100.00
16431;BME280;8325;49.284;7.238;2023-09-18T10:32:55;98091.66;;;20.69;100.00
16431;BME280;8325;49.284;7.238;2023-09-18T10:37:08;98083.44;;;20.71;100.00
16431;BME280;8325;49.284;7.238;2023-09-18T10:41:22;98092.75;;;20.73;100.00
16431;BME280;8325;49.284;7.238;2023-09-18T10:45:36;98089.94;;;20.85;100.00
16431;BME280;8325;49.284;7.238;2023-09-18T10:49:47;98091.38;;;20.98;100.00
16431;BME280;8325;49.284;7.238;2023-09-18T10:54:01;98097.78;;;21.02;100.00
16431;BME280;8325;49.284;7.238;2023-09-18T10:58:23;98105.16;;;20.95;100.00
16431;BME280;8325;49.284;7.238;2023-09-18T11:02:36;98089.19;;;20.89;100.00
16431;BME280;8325;49.284;7.238;2023-09-18T11:11:07;98080.88;;;21.40;100.00
16431;BME280;8325;49.284;7.238;2023-09-18T11:15:31;98073.50;;;21.52;100.00
16431;BME280;8325;49.284;7.238;2023-09-18T11:19:46;98086.06;;;21.62;100.00
16431;BME280;8325;49.284;7.238;2023-09-18T11:28:24;98088.22;;;21.70;100.00
16431;BME280;8325;49.284;7.238;2023-09-18T11:32:39;98092.81;;;21.80;100.00
16431;BME280;8325;49.284;7.238;2023-09-18T11:36:52;98093.56;;;21.75;98.57
16431;BME280;8325;49.284;7.238;2023-09-18T11:41:22;98090.94;;;21.80;99.09
16431;BME280;8325;49.284;7.238;2023-09-18T11:45:34;98095.22;;;21.87;98.52
16431;BME280;8325;49.284;7.238;2023-09-18T11:49:53;98091.56;;;22.03;98.91
16431;BME280;8325;49.284;7.238;2023-09-18T11:54:10;98099.59;;;22.13;96.29
16431;BME280;8325;49.284;7.238;2023-09-18T11:58:21;98083.13;;;22.16;96.39
16431;BME280;8325;49.284;7.238;2023-09-18T12:02:34;98083.59;;;22.03;95.88
16431;BME280;8325;49.284;7.238;2023-09-18T12:06:47;98087.00;;;21.93;95.99
16431;BME280;8325;49.284;7.238;2023-09-18T12:10:59;98079.78;;;21.83;95.09
16431;BME280;8325;49.284;7.238;2023-09-18T12:15:11;98069.41;;;21.82;94.86
16431;BME280;8325;49.284;7.238;2023-09-18T12:19:23;98065.19;;;21.91;95.12
16431;BME280;8325;49.284;7.238;2023-09-18T12:23:39;98059.16;;;22.06;94.07
16431;BME280;8325;49.284;7.238;2023-09-18T12:27:52;98061.91;;;22.26;92.59
16431;BME280;8325;49.284;7.238;2023-09-18T12:32:09;98058.25;;;22.58;91.65
16431;BME280;8325;49.284;7.238;2023-09-18T12:36:21;98058.34;;;22.94;91.74
16431;BME280;8325;49.284;7.238;2023-09-18T12:40:33;98053.53;;;23.37;90.90
16431;BME280;8325;49.284;7.238;2023-09-18T12:44:49;98055.03;;;23.58;87.69
16431;BME280;8325;49.284;7.238;2023-09-18T12:49:15;98044.44;;;23.33;87.50
16431;BME280;8325;49.284;7.238;2023-09-18T12:53:27;98039.94;;;23.28;87.58
16431;BME280;8325;49.284;7.238;2023-09-18T12:57:39;98038.06;;;23.29;89.13
16431;BME280;8325;49.284;7.238;2023-09-18T13:01:51;98032.22;;;23.22;89.41
16431;BME280;8325;49.284;7.238;2023-09-18T13:06:07;98019.72;;;23.02;89.22
16431;BME280;8325;49.284;7.238;2023-09-18T13:10:19;98025.31;;;23.00;89.65
16431;BME280;8325;49.284;7.238;2023-09-18T13:14:58;98027.41;;;22.88;89.11
16431;BME280;8325;49.284;7.238;2023-09-18T13:19:30;98026.66;;;22.97;90.79
16431;BME280;8325;49.284;7.238;2023-09-18T13:23:42;98021.81;;;22.84;90.71
16431;BME280;8325;49.284;7.238;2023-09-18T13:27:54;98015.94;;;22.77;91.41
16431;BME280;8325;49.284;7.238;2023-09-18T13:32:06;98016.72;;;22.62;91.84
16431;BME280;8325;49.284;7.238;2023-09-18T13:36:18;97996.00;;;22.54;92.95
16431;BME280;8325;49.284;7.238;2023-09-18T13:40:29;97999.66;;;22.38;93.12
16431;BME280;8325;49.284;7.238;2023-09-18T13:44:41;98007.13;;;22.36;93.78
16431;BME280;8325;49.284;7.238;2023-09-18T13:48:53;97991.94;;;22.31;98.11
16431;BME280;8325;49.284;7.238;2023-09-18T13:53:04;97998.06;;;22.26;100.00
16431;BME280;8325;49.284;7.238;2023-09-18T13:57:17;97990.66;;;22.64;100.00
16431;BME280;8325;49.284;7.238;2023-09-18T14:01:32;97993.34;;;22.85;94.59
16431;BME280;8325;49.284;7.238;2023-09-18T14:05:44;97990.13;;;23.13;92.62
16431;BME280;8325;49.284;7.238;2023-09-18T14:09:55;97984.19;;;23.52;92.44
16431;BME280;8325;49.284;7.238;2023-09-18T14:14:07;97984.44;;;23.51;89.18
16431;BME280;8325;49.284;7.238;2023-09-18T14:18:19;97968.84;;;23.03;90.57
16431;BME280;8325;49.284;7.238;2023-09-18T14:22:30;97964.59;;;22.82;90.62
16431;BME280;8325;49.284;7.238;2023-09-18T14:26:42;97959.81;;;22.63;92.29
16431;BME280;8325;49.284;7.238;2023-09-18T14:30:53;97955.25;;;22.53;92.81
16431;BME280;8325;49.284;7.238;2023-09-18T14:35:06;97943.28;;;22.46;93.12
16431;BME280;8325;49.284;7.238;2023-09-18T14:39:19;97937.41;;;22.44;93.73
16431;BME280;8325;49.284;7.238;2023-09-18T14:43:31;97922.78;;;22.67;92.93
16431;BME280;8325;49.284;7.238;2023-09-18T14:47:42;97919.56;;;23.06;89.58
16431;BME280;8325;49.284;7.238;2023-09-18T14:51:55;97920.59;;;23.25;87.43
16431;BME280;8325;49.284;7.238;2023-09-18T14:56:07;97920.97;;;23.58;87.19
16431;BME280;8325;49.284;7.238;2023-09-18T15:00:24;97920.78;;;23.44;85.20
16431;BME280;8325;49.284;7.238;2023-09-18T15:04:36;97930.75;;;23.13;86.59
16431;BME280;8325;49.284;7.238;2023-09-18T15:08:48;97926.25;;;22.88;87.80
16431;BME280;8325;49.284;7.238;2023-09-18T15:13:00;97927.56;;;22.65;89.48
16431;BME280;8325;49.284;7.238;2023-09-18T15:17:12;97925.44;;;22.46;91.86
16431;BME280;8325;49.284;7.238;2023-09-18T15:21:24;97913.47;;;22.34;92.43
16431;BME280;8325;49.284;7.238;2023-09-18T15:25:36;97920.13;;;22.21;93.16
16431;BME280;8325;49.284;7.238;2023-09-18T15:29:49;97933.38;;;22.05;94.50
16431;BME280;8325;49.284;7.238;2023-09-18T15:34:01;97944.50;;;21.92;96.19
16431;BME280;8325;49.284;7.238;2023-09-18T15:38:12;97954.56;;;21.80;97.61
16431;BME280;8325;49.284;7.238;2023-09-18T15:42:24;97971.78;;;21.67;98.34
16431;BME280;8325;49.284;7.238;2023-09-18T15:46:36;97971.75;;;21.57;99.20
16431;BME280;8325;49.284;7.238;2023-09-18T15:50:47;97981.22;;;21.43;100.00
16431;BME280;8325;49.284;7.238;2023-09-18T15:54:59;97989.59;;;21.19;100.00
16431;BME280;8325;49.284;7.238;2023-09-18T15:59:11;98008.00;;;20.94;100.00
16431;BME280;8325;49.284;7.238;2023-09-18T16:03:24;98007.44;;;20.59;100.00
16431;BME280;8325;49.284;7.238;2023-09-18T16:07:37;97988.59;;;20.34;100.00
16431;BME280;8325;49.284;7.238;2023-09-18T16:11:51;97988.56;;;20.02;100.00
16431;BME280;8325;49.284;7.238;2023-09-18T16:16:02;97986.63;;;19.75;100.00
16431;BME280;8325;49.284;7.238;2023-09-18T16:20:14;97970.28;;;19.61;100.00
16431;BME280;8325;49.284;7.238;2023-09-18T16:24:26;97975.13;;;19.47;100.00
16431;BME280;8325;49.284;7.238;2023-09-18T16:28:38;97984.25;;;19.35;100.00
16431;BME280;8325;49.284;7.238;2023-09-18T16:32:49;97989.22;;;19.31;100.00
16431;BME280;8325;49.284;7.238;2023-09-18T16:37:01;97987.56;;;19.25;100.00
16431;BME280;8325;49.284;7.238;2023-09-18T16:41:14;97975.63;;;19.05;100.00
16431;BME280;8325;49.284;7.238;2023-09-18T16:45:26;97965.03;;;19.05;100.00
16431;BME280;8325;49.284;7.238;2023-09-18T16:49:38;97970.88;;;19.07;100.00
16431;BME280;8325;49.284;7.238;2023-09-18T16:53:50;97968.63;;;19.16;100.00
16431;BME280;8325;49.284;7.238;2023-09-18T16:58:04;97967.66;;;19.22;100.00
16431;BME280;8325;49.284;7.238;2023-09-18T17:02:17;97969.47;;;19.00;100.00
16431;BME280;8325;49.284;7.238;2023-09-18T17:06:29;97968.63;;;18.99;100.00
16431;BME280;8325;49.284;7.238;2023-09-18T17:10:46;97981.47;;;18.74;100.00
16431;BME280;8325;49.284;7.238;2023-09-18T17:14:57;97977.91;;;18.51;100.00
16431;BME280;8325;49.284;7.238;2023-09-18T17:19:09;97989.25;;;18.35;100.00
16431;BME280;8325;49.284;7.238;2023-09-18T17:23:24;97986.22;;;18.26;100.00
16431;BME280;8325;49.284;7.238;2023-09-18T17:27:35;97979.44;;;18.18;100.00
16431;BME280;8325;49.284;7.238;2023-09-18T17:31:47;97983.44;;;18.04;100.00
16431;BME280;8325;49.284;7.238;2023-09-18T17:35:59;97982.59;;;18.04;100.00
16431;BME280;8325;49.284;7.238;2023-09-18T17:40:11;97977.84;;;17.89;100.00
16431;BME280;8325;49.284;7.238;2023-09-18T17:44:24;97981.78;;;17.86;100.00
16431;BME280;8325;49.284;7.238;2023-09-18T17:48:35;97981.44;;;17.83;100.00
16431;BME280;8325;49.284;7.238;2023-09-18T17:52:47;97985.81;;;17.65;100.00
16431;BME280;8325;49.284;7.238;2023-09-18T17:56:59;97995.47;;;17.60;100.00
16431;BME280;8325;49.284;7.238;2023-09-18T18:01:11;97993.75;;;17.54;100.00
16431;BME280;8325;49.284;7.238;2023-09-18T18:05:23;97984.25;;;17.41;100.00
16431;BME280;8325;49.284;7.238;2023-09-18T18:09:40;97980.22;;;17.38;100.00
16431;BME280;8325;49.284;7.238;2023-09-18T18:13:51;97973.34;;;17.25;100.00
16431;BME280;8325;49.284;7.238;2023-09-18T18:18:04;97990.56;;;17.16;100.00
16431;BME280;8325;49.284;7.238;2023-09-18T18:22:16;97992.53;;;17.09;100.00
16431;BME280;8325;49.284;7.238;2023-09-18T18:26:28;98001.22;;;16.98;100.00
16431;BME280;8325;49.284;7.238;2023-09-18T18:30:39;97993.53;;;16.85;100.00
16431;BME280;8325;49.284;7.238;2023-09-18T18:34:51;98004.28;;;16.83;100.00
16431;BME280;8325;49.284;7.238;2023-09-18T18:39:03;98002.81;;;16.75;100.00
16431;BME280;8325;49.284;7.238;2023-09-18T18:43:16;98019.06;;;16.72;100.00
16431;BME280;8325;49.284;7.238;2023-09-18T18:47:29;98021.69;;;16.72;100.00
16431;BME280;8325;49.284;7.238;2023-09-18T18:51:40;98032.69;;;16.69;100.00
16431;BME280;8325;49.284;7.238;2023-09-18T18:55:52;98042.78;;;16.72;100.00
16431;BME280;8325;49.284;7.238;2023-09-18T19:00:05;98053.03;;;16.80;100.00
16431;BME280;8325;49.284;7.238;2023-09-18T19:04:23;98074.44;;;16.72;100.00
16431;BME280;8325;49.284;7.238;2023-09-18T19:08:36;98078.06;;;16.71;100.00
16431;BME280;8325;49.284;7.238;2023-09-18T19:12:48;98087.19;;;16.75;100.00
16431;BME280;8325;49.284;7.238;2023-09-18T19:16:59;98084.75;;;16.74;100.00
16431;BME280;8325;49.284;7.238;2023-09-18T19:21:11;98079.56;;;16.67;100.00
16431;BME280;8325;49.284;7.238;2023-09-18T19:25:23;98077.97;;;16.66;100.00
16431;BME280;8325;49.284;7.238;2023-09-18T19:29:35;98086.09;;;16.65;100.00
16431;BME280;8325;49.284;7.238;2023-09-18T19:33:47;98094.88;;;16.58;100.00
16431;BME280;8325;49.284;7.238;2023-09-18T19:37:59;98101.56;;;16.61;100.00
16431;BME280;8325;49.284;7.238;2023-09-18T19:42:11;98094.69;;;16.60;100.00
16431;BME280;8325;49.284;7.238;2023-09-18T19:46:22;98094.78;;;16.53;100.00
16431;BME280;8325;49.284;7.238;2023-09-18T19:50:34;98086.78;;;16.60;100.00
16431;BME280;8325;49.284;7.238;2023-09-18T19:54:46;98086.97;;;16.58;100.00
16431;BME280;8325;49.284;7.238;2023-09-18T19:58:58;98090.06;;;16.55;100.00
16431;BME280;8325;49.284;7.238;2023-09-18T20:03:09;98093.16;;;16.52;100.00
16431;BME280;8325;49.284;7.238;2023-09-18T20:07:21;98098.50;;;16.46;100.00
16431;BME280;8325;49.284;7.238;2023-09-18T20:11:33;98100.63;;;16.37;100.00
16431;BME280;8325;49.284;7.238;2023-09-18T20:15:45;98109.00;;;16.34;100.00
16431;BME280;8325;49.284;7.238;2023-09-18T20:19:57;98118.88;;;16.39;100.00
16431;BME280;8325;49.284;7.238;2023-09-18T20:24:09;98123.91;;;16.40;100.00
16431;BME280;8325;49.284;7.238;2023-09-18T20:28:20;98131.75;;;16.47;100.00
16431;BME280;8325;49.284;7.238;2023-09-18T20:32:32;98142.88;;;16.49;100.00
16431;BME280;8325;49.284;7.238;2023-09-18T20:36:45;98139.81;;;16.52;100.00
16431;BME280;8325;49.284;7.238;2023-09-18T20:40:57;98143.47;;;16.51;100.00
16431;BME280;8325;49.284;7.238;2023-09-18T20:45:11;98144.47;;;16.50;100.00
16431;BME280;8325;49.284;7.238;2023-09-18T20:49:25;98139.66;;;16.47;100.00
16431;BME280;8325;49.284;7.238;2023-09-18T20:53:36;98136.28;;;16.40;100.00
16431;BME280;8325;49.284;7.238;2023-09-18T20:57:48;98139.97;;;16.39;100.00
16431;BME280;8325;49.284;7.238;2023-09-18T21:01:59;98141.22;;;16.36;100.00
16431;BME280;8325;49.284;7.238;2023-09-18T21:06:11;98147.72;;;16.33;100.00
16431;BME280;8325;49.284;7.238;2023-09-18T21:10:23;98143.75;;;16.43;100.00
16431;BME280;8325;49.284;7.238;2023-09-18T21:14:43;98147.06;;;16.38;100.00
16431;BME280;8325;49.284;7.238;2023-09-18T21:18:55;98146.25;;;16.38;100.00
16431;BME280;8325;49.284;7.238;2023-09-18T21:23:07;98153.34;;;16.37;100.00
16431;BME280;8325;49.284;7.238;2023-09-18T21:27:18;98159.75;;;16.29;100.00
